createdAt,value
2023-01-13T00:00:44.937Z,20.10
2023-01-13T00:03:38.565Z,19.00
2023-01-13T00:06:27.850Z,17.10
2023-01-13T00:09:21.884Z,16.20
2023-01-13T00:12:14.718Z,18.70
2023-01-13T00:15:08.905Z,18.10
2023-01-13T00:18:11.786Z,15.90
2023-01-13T00:21:07.640Z,17.70
2023-01-13T00:24:00.434Z,15.40
2023-01-13T00:26:54.352Z,18.00
2023-01-13T00:29:47.147Z,16.30
2023-01-13T00:32:22.311Z,15.60
2023-01-13T00:35:15.109Z,17.80
2023-01-13T00:38:00.542Z,16.60
2023-01-13T00:41:00.273Z,16.80
2023-01-13T00:43:52.173Z,15.10
2023-01-13T00:46:45.169Z,15.40
2023-01-13T00:49:39.119Z,16.00
2023-01-13T00:52:34.933Z,15.30
2023-01-13T00:55:27.852Z,14.00
2023-01-13T00:58:21.535Z,13.70
2023-01-13T01:01:12.682Z,15.10
2023-01-13T01:04:05.781Z,14.40
2023-01-13T01:06:58.637Z,15.40
2023-01-13T01:09:46.439Z,15.40
2023-01-13T01:12:39.350Z,17.40
2023-01-13T01:15:31.221Z,14.60
2023-01-13T01:18:24.205Z,15.10
2023-01-13T01:21:17.774Z,15.00
2023-01-13T01:24:11.234Z,13.40
2023-01-13T01:27:04.150Z,13.00
2023-01-13T01:29:57.121Z,13.90
2023-01-13T01:32:49.871Z,12.60
2023-01-13T01:35:43.723Z,13.40
2023-01-13T01:38:37.546Z,14.10
2023-01-13T01:41:32.989Z,13.20
2023-01-13T01:45:01.051Z,13.70
2023-01-13T01:47:59.649Z,14.30
2023-01-13T01:50:54.232Z,11.90
2023-01-13T01:53:41.886Z,12.80
2023-01-13T01:56:37.328Z,12.00
2023-01-13T01:59:34.930Z,11.90
2023-01-13T02:02:28.118Z,11.90
2023-01-13T02:05:23.163Z,12.20
2023-01-13T02:08:17.079Z,11.20
2023-01-13T02:11:30.436Z,12.60
2023-01-13T02:14:23.990Z,12.10
2023-01-13T02:17:28.762Z,13.00
2023-01-13T02:21:03.017Z,11.60
2023-01-13T02:24:42.494Z,12.00
2023-01-13T02:28:04.211Z,9.60
2023-01-13T02:31:17.409Z,10.30
2023-01-13T02:34:15.324Z,11.90
2023-01-13T02:37:14.200Z,11.40
2023-01-13T02:40:16.177Z,11.10
2023-01-13T02:43:33.037Z,11.70
2023-01-13T02:46:30.876Z,12.50
2023-01-13T02:49:33.202Z,11.60
2023-01-13T02:52:31.158Z,11.70
2023-01-13T02:55:29.915Z,11.10
2023-01-13T02:58:27.276Z,10.60
2023-01-13T03:01:21.195Z,10.20
2023-01-13T03:04:31.053Z,9.10
2023-01-13T03:07:59.187Z,9.50
2023-01-13T03:11:03.148Z,10.00
2023-01-13T03:14:01.533Z,9.50
2023-01-13T03:17:07.373Z,9.80
2023-01-13T03:20:07.733Z,9.50
2023-01-13T03:23:09.319Z,10.20
2023-01-13T03:26:08.988Z,11.20
2023-01-13T03:29:10.288Z,9.70
2023-01-13T03:32:13.422Z,11.60
2023-01-13T03:35:13.275Z,11.00
2023-01-13T03:38:12.258Z,11.00
2023-01-13T03:41:10.658Z,11.20
2023-01-13T03:44:33.756Z,11.20
2023-01-13T03:47:32.214Z,10.70
2023-01-13T03:50:29.735Z,10.00
2023-01-13T03:53:28.142Z,10.80
2023-01-13T03:56:29.375Z,9.90
2023-01-13T03:59:28.265Z,9.30
2023-01-13T04:02:28.465Z,9.70
2023-01-13T04:05:22.115Z,10.20
2023-01-13T04:08:20.336Z,9.80
2023-01-13T04:12:21.544Z,10.70
2023-01-13T04:14:33.553Z,9.70
2023-01-13T04:17:26.457Z,10.40
2023-01-13T04:20:14.959Z,11.70
2023-01-13T04:23:08.905Z,11.10
2023-01-13T04:26:03.100Z,9.40
2023-01-13T04:28:56.228Z,11.00
2023-01-13T04:31:49.942Z,11.40
2023-01-13T04:34:36.390Z,9.30
2023-01-13T04:37:29.612Z,10.60
2023-01-13T04:40:25.026Z,10.00
2023-01-13T04:43:18.649Z,9.30
2023-01-13T04:46:11.621Z,9.10
2023-01-13T04:49:04.591Z,10.10
2023-01-13T04:51:57.697Z,10.00
2023-01-13T04:54:53.102Z,12.10
2023-01-13T04:57:46.238Z,13.90
2023-01-13T05:00:39.598Z,11.50
2023-01-13T05:03:32.739Z,12.00
2023-01-13T05:06:26.237Z,10.20
2023-01-13T05:09:19.311Z,10.60
2023-01-13T05:12:30.069Z,11.70
2023-01-13T05:15:40.855Z,11.80
2023-01-13T05:18:33.909Z,12.40
2023-01-13T05:21:44.193Z,10.60
2023-01-13T05:24:54.834Z,13.80
2023-01-13T05:27:48.095Z,11.90
2023-01-13T05:30:44.399Z,12.50
2023-01-13T05:33:37.413Z,13.30
2023-01-13T05:36:30.507Z,12.20
2023-01-13T05:39:23.283Z,11.60
2023-01-13T05:42:33.659Z,13.30
2023-01-13T05:45:26.818Z,13.50
2023-01-13T05:48:21.403Z,11.80
2023-01-13T05:51:15.277Z,12.40
2023-01-13T05:54:08.180Z,11.70
2023-01-13T05:57:00.944Z,12.90
2023-01-13T05:59:53.877Z,11.50
2023-01-13T06:02:47.018Z,11.50
2023-01-13T06:05:40.366Z,10.90
2023-01-13T06:08:34.272Z,12.80
2023-01-13T06:11:19.907Z,13.50
2023-01-13T06:14:05.307Z,12.70
2023-01-13T06:16:58.213Z,13.60
2023-01-13T06:19:52.225Z,12.60
2023-01-13T06:22:47.641Z,12.60
2023-01-13T06:25:47.936Z,13.10
2023-01-13T06:28:41.187Z,12.10
2023-01-13T06:31:38.694Z,12.50
2023-01-13T06:34:31.942Z,12.30
2023-01-13T06:37:26.265Z,12.30
2023-01-13T06:40:19.796Z,11.30
2023-01-13T06:43:18.954Z,11.90
2023-01-13T06:46:04.866Z,11.40
2023-01-13T06:48:57.935Z,12.00
2023-01-13T06:51:50.947Z,11.00
2023-01-13T06:54:44.425Z,10.60
2023-01-13T06:57:31.013Z,17.50
2023-01-13T07:00:26.866Z,11.10
2023-01-13T07:03:20.213Z,11.70
2023-01-13T07:06:07.615Z,12.90
2023-01-13T07:09:00.876Z,12.20
2023-01-13T07:11:46.889Z,11.30
2023-01-13T07:14:57.249Z,12.10
2023-01-13T07:17:51.675Z,11.40
2023-01-13T07:20:44.595Z,11.70
2023-01-13T07:23:33.184Z,13.10
2023-01-13T07:26:25.953Z,10.80
2023-01-13T07:29:19.069Z,10.40
2023-01-13T07:32:11.843Z,12.10
2023-01-13T07:35:06.277Z,12.90
2023-01-13T07:37:59.331Z,14.10
2023-01-13T07:40:51.381Z,13.10
2023-01-13T07:43:44.504Z,13.50
2023-01-13T07:46:27.692Z,13.10
2023-01-13T07:49:13.192Z,11.70
2023-01-13T07:52:06.631Z,11.70
2023-01-13T07:54:42.301Z,13.10
2023-01-13T07:57:28.341Z,13.40
2023-01-13T08:00:21.929Z,12.90
2023-01-13T08:03:16.169Z,12.30
2023-01-13T08:05:59.122Z,14.90
2023-01-13T08:08:43.073Z,12.70
2023-01-13T08:11:29.298Z,12.30
2023-01-13T08:14:23.123Z,13.90
2023-01-13T08:17:05.309Z,12.50
2023-01-13T08:19:51.564Z,13.60
2023-01-13T08:22:35.156Z,12.80
2023-01-13T08:25:19.179Z,12.10
2023-01-13T08:28:11.933Z,13.20
2023-01-13T08:31:00.552Z,13.20
2023-01-13T08:33:47.623Z,15.50
2023-01-13T08:36:41.346Z,15.70
2023-01-13T08:39:36.132Z,14.30
2023-01-13T08:42:33.098Z,14.70
2023-01-13T08:45:17.005Z,13.60
2023-01-13T08:48:10.695Z,13.60
2023-01-13T08:51:08.359Z,12.70
2023-01-13T08:54:00.602Z,15.20
2023-01-13T08:56:53.962Z,13.50
2023-01-13T08:59:41.494Z,12.90
2023-01-13T09:02:34.431Z,13.70
2023-01-13T09:05:20.388Z,12.90
2023-01-13T09:08:15.070Z,14.30
2023-01-13T09:11:35.063Z,12.90
2023-01-13T09:14:30.212Z,11.80
2023-01-13T09:17:03.747Z,12.60
2023-01-13T09:19:47.165Z,15.70
2023-01-13T09:22:21.995Z,13.30
2023-01-13T09:25:14.978Z,14.20
2023-01-13T09:27:51.240Z,14.30
2023-01-13T09:30:37.673Z,14.30
2023-01-13T09:33:38.950Z,15.00
2023-01-13T09:36:31.748Z,13.10
2023-01-13T09:39:26.304Z,13.00
2023-01-13T09:42:44.068Z,12.50
2023-01-13T09:45:35.030Z,11.60
2023-01-13T09:48:31.571Z,14.40
2023-01-13T09:51:33.220Z,14.40
2023-01-13T09:54:32.967Z,14.70
2023-01-13T09:57:26.275Z,15.10
2023-01-13T10:00:25.292Z,13.20
2023-01-13T10:03:27.711Z,12.70
2023-01-13T10:06:22.543Z,11.00
2023-01-13T10:09:16.024Z,11.30
2023-01-13T10:12:31.835Z,12.00
2023-01-13T10:15:23.218Z,11.70
2023-01-13T10:18:20.543Z,13.10
2023-01-13T10:21:28.949Z,12.80
2023-01-13T10:24:30.838Z,11.70
2023-01-13T10:27:26.393Z,11.80
2023-01-13T10:30:19.935Z,12.10
2023-01-13T10:33:18.884Z,11.70
2023-01-13T10:36:21.577Z,11.00
2023-01-13T10:38:57.942Z,12.30
2023-01-13T10:41:51.219Z,11.10
2023-01-13T10:44:53.065Z,12.00
2023-01-13T10:48:04.661Z,12.10
2023-01-13T10:50:58.149Z,11.80
2023-01-13T10:53:55.472Z,11.90
2023-01-13T10:56:40.535Z,11.20
2023-01-13T10:59:35.082Z,11.60
2023-01-13T11:02:33.092Z,11.80
2023-01-13T11:05:28.482Z,11.80
2023-01-13T11:08:23.884Z,11.60
2023-01-13T11:11:03.206Z,11.50
2023-01-13T11:14:16.871Z,11.20
2023-01-13T11:16:56.443Z,11.40
2023-01-13T11:19:45.096Z,11.00
2023-01-13T11:22:46.093Z,11.60
2023-01-13T11:25:46.546Z,12.60
2023-01-13T11:28:48.588Z,12.30
2023-01-13T11:31:47.697Z,9.70
2023-01-13T11:34:43.416Z,12.80
2023-01-13T11:37:43.066Z,11.10
2023-01-13T11:40:33.823Z,11.60
2023-01-13T11:43:28.049Z,12.60
2023-01-13T11:46:22.405Z,10.30
2023-01-13T11:49:22.404Z,12.40
2023-01-13T11:52:20.792Z,13.40
2023-01-13T11:55:30.953Z,12.30
2023-01-13T11:58:29.089Z,11.30
2023-01-13T12:01:56.764Z,11.10
2023-01-13T12:05:06.921Z,10.80
2023-01-13T12:07:56.989Z,10.20
2023-01-13T12:11:02.725Z,10.90
2023-01-13T12:14:01.211Z,10.30
2023-01-13T12:16:43.702Z,11.10
2023-01-13T12:19:32.836Z,12.00
2023-01-13T12:22:29.823Z,10.70
2023-01-13T12:25:33.728Z,9.50
2023-01-13T12:28:26.955Z,11.20
2023-01-13T12:31:15.350Z,12.40
2023-01-13T12:34:07.645Z,11.50
2023-01-13T12:37:02.846Z,14.10
2023-01-13T12:40:12.808Z,11.10
2023-01-13T12:43:26.013Z,16.50
2023-01-13T12:46:36.796Z,15.50
2023-01-13T12:49:29.443Z,11.90
2023-01-13T12:52:22.990Z,10.80
2023-01-13T12:55:10.328Z,13.40
2023-01-13T12:58:19.416Z,11.90
2023-01-13T13:01:16.914Z,12.50
2023-01-13T13:04:12.947Z,11.90
2023-01-13T13:07:12.037Z,11.80
2023-01-13T13:10:21.835Z,11.60
2023-01-13T13:13:43.900Z,10.70
2023-01-13T13:17:52.519Z,12.00
2023-01-13T13:20:03.423Z,11.20
2023-01-13T13:22:56.525Z,10.20
2023-01-13T13:26:07.340Z,12.70
2023-01-13T13:29:21.953Z,11.70
2023-01-13T13:32:12.016Z,12.30
2023-01-13T13:34:54.188Z,11.40
2023-01-13T13:38:05.786Z,14.50
2023-01-13T13:41:03.605Z,13.40
2023-01-13T13:44:01.821Z,12.70
2023-01-13T13:46:49.224Z,11.60
2023-01-13T13:49:41.447Z,14.30
2023-01-13T13:52:22.952Z,12.90
2023-01-13T13:55:21.921Z,12.40
2023-01-13T13:58:17.747Z,12.00
2023-01-13T14:01:26.026Z,12.70
2023-01-13T14:04:16.981Z,11.30
2023-01-13T14:07:32.858Z,11.70
2023-01-13T14:10:24.913Z,11.70
2023-01-13T14:13:21.141Z,13.40
2023-01-13T14:16:17.329Z,12.90
2023-01-13T14:18:59.532Z,14.30
2023-01-13T14:21:52.574Z,12.20
2023-01-13T14:25:00.750Z,13.60
2023-01-13T14:27:54.560Z,13.20
2023-01-13T14:30:47.910Z,14.10
2023-01-13T14:33:44.386Z,13.30
2023-01-13T14:36:40.979Z,13.30
2023-01-13T14:39:43.011Z,13.60
2023-01-13T14:42:35.721Z,13.40
2023-01-13T14:45:33.242Z,13.10
2023-01-13T14:48:35.577Z,14.00
2023-01-13T14:51:30.811Z,14.40
2023-01-13T14:54:44.725Z,15.20
2023-01-13T14:57:39.640Z,14.20
2023-01-13T15:00:33.649Z,15.20
2023-01-13T15:03:20.555Z,14.00
2023-01-13T15:06:27.393Z,14.80
2023-01-13T15:09:27.286Z,13.70
2023-01-13T15:12:33.625Z,13.80
2023-01-13T15:15:30.271Z,16.40
2023-01-13T15:18:23.271Z,15.50
2023-01-13T15:21:17.317Z,16.00
2023-01-13T15:24:10.700Z,16.10
2023-01-13T15:27:05.604Z,19.10
2023-01-13T15:29:51.687Z,14.60
2023-01-13T15:32:44.033Z,19.40
2023-01-13T15:35:38.560Z,15.60
2023-01-13T15:38:31.670Z,19.20
2023-01-13T15:41:38.713Z,19.20
2023-01-13T15:44:49.067Z,16.60
2023-01-13T15:47:41.885Z,15.30
2023-01-13T15:50:38.393Z,17.00
2023-01-13T15:53:31.531Z,14.30
2023-01-13T15:56:27.493Z,13.80
2023-01-13T15:59:23.290Z,14.80
2023-01-13T16:02:18.443Z,14.40
2023-01-13T16:05:11.927Z,14.80
2023-01-13T16:08:03.304Z,16.00
2023-01-13T16:10:56.563Z,15.10
2023-01-13T16:13:43.401Z,17.20
2023-01-13T16:16:31.013Z,17.90
2023-01-13T16:19:16.837Z,20.70
2023-01-13T16:22:01.899Z,20.70
2023-01-13T16:24:55.103Z,20.70
2023-01-13T16:27:48.385Z,15.60
2023-01-13T16:30:41.506Z,23.10
2023-01-13T16:33:34.824Z,22.60
2023-01-13T16:36:22.004Z,18.30
2023-01-13T16:39:23.542Z,17.90
2023-01-13T16:42:07.752Z,15.20
2023-01-13T16:45:08.271Z,16.40
2023-01-13T16:48:00.242Z,15.00
2023-01-13T16:50:53.521Z,14.00
2023-01-13T16:53:39.809Z,15.70
2023-01-13T16:56:31.904Z,15.90
2023-01-13T16:59:23.387Z,16.40
2023-01-13T17:02:20.245Z,13.90
2023-01-13T17:05:07.026Z,19.40
2023-01-13T17:08:01.674Z,16.40
2023-01-13T17:10:48.446Z,19.20
2023-01-13T17:13:41.690Z,14.80
2023-01-13T17:16:22.923Z,15.60
2023-01-13T17:19:08.617Z,14.40
2023-01-13T17:22:04.835Z,16.30
2023-01-13T17:24:57.845Z,13.30
2023-01-13T17:27:50.985Z,15.10
2023-01-13T17:30:24.270Z,14.00
2023-01-13T17:33:17.343Z,14.10
2023-01-13T17:36:12.396Z,14.20
2023-01-13T17:39:05.422Z,14.70
2023-01-13T17:41:58.374Z,16.60
2023-01-13T17:44:51.634Z,15.40
2023-01-13T17:47:35.349Z,14.00
2023-01-13T17:50:20.081Z,13.00
2023-01-13T17:53:12.887Z,14.50
2023-01-13T17:55:55.025Z,14.30
2023-01-13T17:58:48.439Z,15.60
2023-01-13T18:01:40.824Z,14.20
2023-01-13T18:04:33.855Z,14.20
2023-01-13T18:07:27.032Z,15.00
2023-01-13T18:10:20.586Z,16.50
2023-01-13T18:13:13.836Z,14.10
2023-01-13T18:16:08.545Z,14.30
2023-01-13T18:19:18.966Z,15.00
2023-01-13T18:22:32.041Z,14.40
2023-01-13T18:25:41.253Z,13.40
2023-01-13T18:28:34.190Z,13.70
2023-01-13T18:31:27.449Z,13.40
2023-01-13T18:34:12.987Z,14.80
2023-01-13T18:36:58.471Z,13.30
2023-01-13T18:39:51.647Z,14.40
2023-01-13T18:42:54.521Z,15.20
2023-01-13T18:45:52.917Z,15.10
2023-01-13T18:48:45.673Z,12.80
2023-01-13T18:51:32.303Z,13.00
2023-01-13T18:54:25.568Z,15.90
2023-01-13T18:57:13.716Z,13.40
2023-01-13T18:59:58.195Z,14.50
2023-01-13T19:05:41.686Z,13.80
2023-01-13T19:08:34.994Z,12.10
2023-01-13T19:11:13.600Z,13.30
2023-01-13T19:13:58.761Z,14.80
2023-01-13T19:16:42.712Z,13.70
2023-01-13T19:19:18.334Z,12.90
2023-01-13T19:22:12.243Z,11.60
2023-01-13T19:25:06.080Z,12.00
2023-01-13T19:27:51.515Z,11.80
2023-01-13T19:30:45.029Z,12.90
2023-01-13T19:33:33.590Z,13.90
2023-01-13T19:36:27.043Z,10.70
2023-01-13T19:39:20.145Z,11.40
2023-01-13T19:42:32.967Z,12.50
2023-01-13T19:45:32.877Z,12.70
2023-01-13T19:48:26.316Z,13.40
2023-01-13T19:51:22.954Z,11.90
2023-01-13T19:54:19.856Z,12.90
2023-01-13T19:57:05.364Z,11.70
2023-01-13T19:59:58.849Z,18.70
2023-01-13T20:02:53.332Z,13.20
2023-01-13T20:05:46.373Z,12.70
2023-01-13T20:08:39.375Z,11.00
2023-01-13T20:11:33.279Z,10.20
2023-01-13T20:14:26.415Z,10.20
2023-01-13T20:17:22.160Z,10.20
2023-01-13T20:20:09.097Z,10.30
2023-01-13T20:22:42.225Z,11.80
2023-01-13T20:25:29.013Z,12.40
2023-01-13T20:28:22.160Z,11.80
2023-01-13T20:31:16.336Z,18.70
2023-01-13T20:34:10.117Z,13.60
2023-01-13T20:37:03.105Z,14.30
2023-01-13T20:39:58.172Z,12.90
2023-01-13T20:42:53.212Z,13.60
2023-01-13T20:45:46.133Z,10.80
2023-01-13T20:48:39.509Z,12.60
2023-01-13T20:51:32.359Z,13.70
2023-01-13T20:54:26.177Z,12.00
2023-01-13T20:57:19.515Z,13.30
2023-01-13T21:00:13.882Z,11.50
2023-01-13T21:03:05.427Z,11.30
2023-01-13T21:05:59.958Z,12.20
2023-01-13T21:09:14.081Z,12.50
2023-01-13T21:12:25.552Z,12.60
2023-01-13T21:15:18.437Z,15.40
2023-01-13T21:18:10.083Z,23.10
2023-01-13T21:21:13.207Z,14.60
2023-01-13T21:24:06.442Z,17.10
2023-01-13T21:26:59.643Z,15.40
2023-01-13T21:29:52.461Z,16.20
2023-01-13T21:32:38.996Z,15.40
2023-01-13T21:35:31.888Z,14.50
2023-01-13T21:38:27.289Z,12.70
2023-01-13T21:41:40.555Z,14.30
2023-01-13T21:44:53.507Z,17.00
2023-01-13T21:47:52.255Z,15.10
2023-01-13T21:50:45.447Z,15.40
2023-01-13T21:53:30.924Z,13.10
2023-01-13T21:56:24.069Z,13.70
2023-01-13T21:59:17.272Z,14.50
2023-01-13T22:02:30.104Z,14.80
2023-01-13T22:05:24.803Z,18.00
2023-01-13T22:08:18.870Z,17.90
2023-01-13T22:11:14.356Z,16.50
2023-01-13T22:14:09.413Z,21.20
2023-01-13T22:17:03.972Z,16.10
2023-01-13T22:19:59.321Z,16.40
2023-01-13T22:22:52.485Z,16.50
2023-01-13T22:25:47.309Z,16.30
2023-01-13T22:28:44.318Z,15.30
2023-01-13T22:31:39.296Z,14.80
2023-01-13T22:34:32.147Z,15.30
2023-01-13T22:37:18.713Z,16.20
2023-01-13T22:40:12.822Z,17.30
2023-01-13T22:43:06.164Z,16.90
2023-01-13T22:46:14.255Z,16.30
2023-01-13T22:49:07.068Z,15.60
2023-01-13T22:51:59.750Z,19.70
2023-01-13T22:54:52.521Z,18.10
2023-01-13T22:57:48.069Z,16.70
2023-01-13T23:00:41.937Z,18.20
2023-01-13T23:03:34.843Z,17.00
2023-01-13T23:06:29.238Z,17.30
2023-01-13T23:09:22.020Z,17.50
2023-01-13T23:12:15.005Z,17.70
2023-01-13T23:15:09.203Z,18.20
2023-01-13T23:17:55.114Z,18.60
2023-01-13T23:20:48.628Z,16.20
2023-01-13T23:23:41.794Z,15.80
2023-01-13T23:26:35.780Z,16.70
2023-01-13T23:29:28.759Z,16.60
2023-01-13T23:32:22.682Z,17.60
2023-01-13T23:35:15.761Z,19.30
2023-01-13T23:38:08.736Z,21.30
2023-01-13T23:41:02.165Z,20.20
2023-01-13T23:43:56.265Z,20.90
2023-01-13T23:46:49.085Z,15.90
2023-01-13T23:49:42.208Z,16.30
2023-01-13T23:52:36.069Z,16.00
2023-01-13T23:56:16.564Z,15.80
2023-01-13T23:58:44.677Z,13.70
